createdAt,value
2022-10-02T00:00:36.182Z,6.65
2022-10-02T00:05:45.792Z,8.93
2022-10-02T00:10:51.956Z,8.35
2022-10-02T00:15:54.970Z,8.25
2022-10-02T00:21:06.161Z,12.55
2022-10-02T00:26:26.580Z,15.45
2022-10-02T00:31:52.939Z,14.50
2022-10-02T00:37:08.403Z,18.35
2022-10-02T00:42:42.091Z,10.73
2022-10-02T00:47:50.431Z,12.88
2022-10-02T00:53:04.858Z,15.38
2022-10-02T00:58:40.952Z,13.48
2022-10-02T01:03:47.307Z,14.55
2022-10-02T01:08:48.767Z,11.00
2022-10-02T01:13:51.251Z,6.80
2022-10-02T01:18:52.971Z,13.00
2022-10-02T01:24:02.161Z,12.10
2022-10-02T01:29:04.613Z,15.80
2022-10-02T01:34:06.702Z,20.15
2022-10-02T01:39:08.179Z,9.48
2022-10-02T01:44:11.067Z,13.43
2022-10-02T01:49:39.478Z,11.02
2022-10-02T01:54:46.331Z,13.43
2022-10-02T02:00:05.218Z,13.75
2022-10-02T02:05:17.788Z,10.77
2022-10-02T02:10:26.489Z,15.57
2022-10-02T02:15:54.714Z,12.57
2022-10-02T02:21:01.323Z,8.23
2022-10-02T02:26:08.624Z,14.03
2022-10-02T02:36:19.205Z,15.82
2022-10-02T02:41:26.353Z,9.63
2022-10-02T02:46:34.591Z,13.23
2022-10-02T02:51:42.615Z,15.20
2022-10-02T02:56:46.780Z,15.43
2022-10-02T03:01:48.212Z,8.85
2022-10-02T03:06:55.144Z,8.45
2022-10-02T03:12:14.853Z,10.52
2022-10-02T03:17:35.915Z,8.68
2022-10-02T03:22:50.707Z,5.25
2022-10-02T03:28:14.577Z,11.25
2022-10-02T03:33:17.431Z,9.60
2022-10-02T03:38:21.154Z,12.25
2022-10-02T03:43:24.324Z,12.00
2022-10-02T03:48:25.703Z,12.75
2022-10-02T03:53:31.263Z,11.00
2022-10-02T03:58:34.064Z,9.15
2022-10-02T04:03:39.977Z,11.65
2022-10-02T04:08:50.940Z,5.68
2022-10-02T04:14:20.734Z,17.73
2022-10-02T04:19:47.323Z,11.98
2022-10-02T04:24:53.411Z,14.35
2022-10-02T04:30:14.659Z,7.28
2022-10-02T04:35:33.626Z,12.20
2022-10-02T04:40:51.483Z,11.35
2022-10-02T04:46:02.061Z,9.63
2022-10-02T04:51:27.298Z,8.05
2022-10-02T04:57:06.463Z,11.43
2022-10-02T05:02:28.145Z,11.57
2022-10-02T05:08:08.358Z,10.38
2022-10-02T05:13:37.357Z,11.27
2022-10-02T05:18:57.132Z,12.93
2022-10-02T05:24:40.051Z,11.98
2022-10-02T05:30:05.759Z,10.07
2022-10-02T05:35:34.632Z,19.40
2022-10-02T05:41:08.136Z,12.43
2022-10-02T05:46:25.723Z,11.27
2022-10-02T05:51:40.275Z,13.65
2022-10-02T05:56:51.387Z,17.42
2022-10-02T06:01:57.296Z,12.23
2022-10-02T06:07:15.417Z,13.95
2022-10-02T06:12:30.558Z,18.67
2022-10-02T06:17:45.726Z,12.88
2022-10-02T06:22:54.304Z,14.07
2022-10-02T06:28:02.812Z,8.70
2022-10-02T06:33:23.352Z,25.75
2022-10-02T06:39:01.150Z,13.65
2022-10-02T06:44:33.133Z,17.85
2022-10-02T06:50:03.197Z,11.57
2022-10-02T06:55:31.946Z,16.40
2022-10-02T07:00:45.695Z,12.82
2022-10-02T07:06:08.195Z,15.15
2022-10-02T07:11:21.482Z,12.13
2022-10-02T07:16:41.882Z,16.45
2022-10-02T07:22:00.424Z,16.85
2022-10-02T07:27:19.676Z,16.58
2022-10-02T07:32:42.560Z,14.23
2022-10-02T07:38:15.103Z,15.30
2022-10-02T07:43:24.178Z,13.32
2022-10-02T07:48:40.556Z,7.95
2022-10-02T07:53:51.696Z,7.55
2022-10-02T07:59:00.068Z,5.22
2022-10-02T08:04:05.933Z,13.05
2022-10-02T08:09:24.322Z,7.22
2022-10-02T08:14:41.256Z,5.18
2022-10-02T08:19:49.696Z,7.85
2022-10-02T08:24:57.515Z,9.52
2022-10-02T08:30:03.898Z,6.85
2022-10-02T08:35:12.523Z,8.33
2022-10-02T08:40:35.445Z,4.03
2022-10-02T08:46:02.347Z,7.82
2022-10-02T08:51:21.400Z,2.43
2022-10-02T08:56:48.322Z,8.30
2022-10-02T09:02:41.471Z,6.97
2022-10-02T09:08:07.913Z,3.88
2022-10-02T09:13:33.615Z,2.97
2022-10-02T09:18:51.148Z,3.95
2022-10-02T09:24:20.886Z,8.45
2022-10-02T09:29:55.326Z,8.57
2022-10-02T09:35:09.064Z,3.22
2022-10-02T09:41:04.351Z,2.45
2022-10-02T09:46:46.683Z,2.78
2022-10-02T09:52:10.642Z,3.25
2022-10-02T09:57:51.526Z,2.75
2022-10-02T10:03:22.619Z,6.75
2022-10-02T10:08:54.296Z,2.17
2022-10-02T10:14:29.161Z,3.70
2022-10-02T10:19:55.502Z,4.07
2022-10-02T10:25:28.092Z,3.72
2022-10-02T10:31:03.748Z,3.65
2022-10-02T10:36:46.618Z,2.60
2022-10-02T10:42:50.178Z,4.47
2022-10-02T10:48:25.320Z,2.80
2022-10-02T10:53:46.922Z,3.33
2022-10-02T10:59:24.401Z,2.67
2022-10-02T11:04:41.759Z,3.55
2022-10-02T11:09:55.706Z,1.10
2022-10-02T11:15:02.763Z,4.30
2022-10-02T11:26:06.100Z,4.05
2022-10-02T11:31:32.940Z,2.65
2022-10-02T11:36:42.618Z,1.70
2022-10-02T11:42:05.778Z,4.72
2022-10-02T11:47:31.724Z,2.03
2022-10-02T11:52:57.246Z,1.35
2022-10-02T11:58:19.562Z,2.17
2022-10-02T12:03:36.575Z,3.10
2022-10-02T12:09:00.355Z,0.60
2022-10-02T12:14:20.402Z,1.80
2022-10-02T12:19:39.615Z,1.13
2022-10-02T12:25:27.833Z,2.15
2022-10-02T12:35:45.145Z,2.08
2022-10-02T12:40:46.480Z,0.82
2022-10-02T12:45:50.892Z,1.75
2022-10-02T12:51:28.942Z,0.85
2022-10-02T12:56:42.391Z,2.10
2022-10-02T13:02:17.198Z,1.30
2022-10-02T13:07:33.666Z,3.13
2022-10-02T13:12:40.919Z,1.10
2022-10-02T13:17:58.729Z,1.33
2022-10-02T13:23:07.507Z,0.98
2022-10-02T13:28:27.681Z,1.80
2022-10-02T13:33:41.028Z,1.77
2022-10-02T13:39:00.225Z,2.05
2022-10-02T13:44:12.336Z,0.77
2022-10-02T13:49:54.159Z,2.17
2022-10-02T13:55:37.205Z,3.10
2022-10-02T14:00:46.306Z,1.05
2022-10-02T14:06:00.683Z,1.42
2022-10-02T14:11:43.367Z,2.67
2022-10-02T14:17:32.037Z,1.33
2022-10-02T14:23:03.101Z,2.47
2022-10-02T14:28:12.904Z,1.85
2022-10-02T14:33:43.895Z,0.77
2022-10-02T14:38:53.042Z,2.22
2022-10-02T14:44:21.030Z,0.85
2022-10-02T14:49:43.436Z,0.82
2022-10-02T14:55:18.792Z,2.80
2022-10-02T15:00:22.032Z,0.90
2022-10-02T15:05:50.813Z,2.08
2022-10-02T15:10:52.752Z,1.00
2022-10-02T15:16:29.165Z,2.25
2022-10-02T15:21:40.458Z,2.65
2022-10-02T15:27:15.512Z,2.03
2022-10-02T15:32:20.022Z,3.70
2022-10-02T15:37:43.342Z,3.03
2022-10-02T15:42:57.504Z,5.03
2022-10-02T15:48:14.772Z,2.30
2022-10-02T15:53:36.723Z,1.30
2022-10-02T15:59:09.991Z,8.32
2022-10-02T16:04:37.872Z,2.72
2022-10-02T16:09:48.002Z,5.63
2022-10-02T16:15:11.256Z,5.95
2022-10-02T16:20:27.013Z,6.78
2022-10-02T16:26:06.366Z,5.55
2022-10-02T16:31:31.784Z,4.47
2022-10-02T16:36:42.056Z,4.03
2022-10-02T16:42:01.934Z,3.42
2022-10-02T16:47:18.072Z,3.45
2022-10-02T16:52:29.586Z,3.05
2022-10-02T16:57:39.823Z,3.42
2022-10-02T17:02:51.687Z,4.90
2022-10-02T17:08:01.872Z,6.38
2022-10-02T17:13:09.461Z,7.75
2022-10-02T17:18:24.049Z,4.10
2022-10-02T17:23:33.904Z,6.90
2022-10-02T17:28:53.442Z,7.22
2022-10-02T17:33:58.038Z,2.65
2022-10-02T17:39:04.033Z,5.70
2022-10-02T17:44:23.383Z,7.57
2022-10-02T17:49:58.845Z,11.75
2022-10-02T17:55:49.852Z,6.15
2022-10-02T18:01:06.110Z,7.72
2022-10-02T18:06:19.402Z,13.23
2022-10-02T18:11:42.491Z,11.85
2022-10-02T18:16:52.895Z,16.55
2022-10-02T18:22:05.258Z,11.40
2022-10-02T18:27:46.971Z,10.88
2022-10-02T18:33:25.162Z,10.70
2022-10-02T18:38:41.790Z,9.70
2022-10-02T18:43:57.161Z,12.57
2022-10-02T18:49:10.511Z,14.73
2022-10-02T18:54:36.735Z,11.30
2022-10-02T19:00:07.240Z,13.18
2022-10-02T19:05:36.844Z,14.70
2022-10-02T19:10:42.821Z,11.32
2022-10-02T19:15:46.288Z,11.68
2022-10-02T19:21:13.771Z,10.35
2022-10-02T19:26:27.878Z,12.43
2022-10-02T19:31:31.318Z,13.80
2022-10-02T19:36:41.777Z,12.15
2022-10-02T19:41:44.398Z,11.43
2022-10-02T19:46:52.975Z,14.88
2022-10-02T19:51:54.903Z,14.65
2022-10-02T19:57:07.172Z,12.52
2022-10-02T20:02:21.750Z,6.05
2022-10-02T20:07:26.619Z,11.93
2022-10-02T20:12:36.022Z,7.00
2022-10-02T20:17:38.020Z,6.82
2022-10-02T20:22:52.936Z,7.53
2022-10-02T20:28:00.435Z,11.60
2022-10-02T20:33:11.296Z,9.70
2022-10-02T20:38:39.092Z,10.15
2022-10-02T20:49:15.721Z,6.75
2022-10-02T20:54:28.559Z,8.70
2022-10-02T21:00:08.105Z,6.85
2022-10-02T21:05:34.486Z,12.18
2022-10-02T21:10:54.706Z,13.18
2022-10-02T21:16:17.806Z,12.70
2022-10-02T21:21:37.713Z,12.27
2022-10-02T21:27:03.953Z,11.32
2022-10-02T21:32:28.731Z,15.80
2022-10-02T21:37:50.181Z,16.50
2022-10-02T21:43:04.892Z,13.70
2022-10-02T21:48:40.200Z,12.82
2022-10-02T21:54:19.407Z,14.00
2022-10-02T21:59:41.475Z,15.18
2022-10-02T22:04:55.226Z,14.68
2022-10-02T22:10:12.766Z,13.30
2022-10-02T22:20:51.456Z,11.05
2022-10-02T22:26:12.459Z,8.85
2022-10-02T22:31:43.340Z,17.33
2022-10-02T22:37:03.668Z,21.70
2022-10-02T22:42:12.691Z,16.02
2022-10-02T22:47:26.989Z,18.80
2022-10-02T22:52:31.946Z,15.02
2022-10-02T22:57:37.853Z,21.50
2022-10-02T23:03:01.862Z,11.68
2022-10-02T23:08:46.120Z,12.63
2022-10-02T23:13:56.946Z,15.90
2022-10-02T23:19:08.966Z,14.45
2022-10-02T23:24:36.739Z,14.20
2022-10-02T23:29:47.048Z,10.95
2022-10-02T23:35:01.090Z,15.82
2022-10-02T23:40:05.206Z,11.48
2022-10-02T23:45:21.154Z,10.02
2022-10-02T23:50:39.297Z,7.70
2022-10-02T23:55:55.339Z,9.75
